sensor_id;sensor_type;location;lat;lon;timestamp;P1;durP1;ratioP1;P2;durP2;ratioP2
47219;SDS011;32961;51.936;4.788;2023-05-10T00:01:52;35.85;;;20.65;;
47219;SDS011;32961;51.936;4.788;2023-05-10T00:04:20;38.38;;;24.05;;
47219;SDS011;32961;51.936;4.788;2023-05-10T00:06:48;44.70;;;26.55;;
47219;SDS011;32961;51.936;4.788;2023-05-10T00:09:16;42.92;;;25.98;;
47219;SDS011;32961;51.936;4.788;2023-05-10T00:11:44;39.78;;;23.77;;
47219;SDS011;32961;51.936;4.788;2023-05-10T00:14:13;39.72;;;26.27;;
47219;SDS011;32961;51.936;4.788;2023-05-10T00:16:41;44.15;;;25.90;;
47219;SDS011;32961;51.936;4.788;2023-05-10T00:19:09;34.35;;;20.35;;
47219;SDS011;32961;51.936;4.788;2023-05-10T00:21:37;40.92;;;24.92;;
47219;SDS011;32961;51.936;4.788;2023-05-10T00:24:05;48.17;;;25.98;;
47219;SDS011;32961;51.936;4.788;2023-05-10T00:26:33;48.08;;;27.70;;
47219;SDS011;32961;51.936;4.788;2023-05-10T00:29:00;48.03;;;26.55;;
47219;SDS011;32961;51.936;4.788;2023-05-10T00:31:30;48.47;;;27.95;;
47219;SDS011;32961;51.936;4.788;2023-05-10T00:33:57;48.03;;;26.80;;
47219;SDS011;32961;51.936;4.788;2023-05-10T00:36:25;41.30;;;24.88;;
47219;SDS011;32961;51.936;4.788;2023-05-10T00:38:53;45.42;;;25.90;;
47219;SDS011;32961;51.936;4.788;2023-05-10T00:41:21;47.45;;;27.00;;
47219;SDS011;32961;51.936;4.788;2023-05-10T00:43:49;52.05;;;27.17;;
47219;SDS011;32961;51.936;4.788;2023-05-10T00:46:17;49.80;;;28.58;;
47219;SDS011;32961;51.936;4.788;2023-05-10T00:48:47;51.50;;;28.58;;
47219;SDS011;32961;51.936;4.788;2023-05-10T00:51:15;44.00;;;26.08;;
47219;SDS011;32961;51.936;4.788;2023-05-10T00:53:43;49.03;;;27.08;;
47219;SDS011;32961;51.936;4.788;2023-05-10T00:56:12;52.33;;;27.95;;
47219;SDS011;32961;51.936;4.788;2023-05-10T00:58:40;51.67;;;26.80;;
47219;SDS011;32961;51.936;4.788;2023-05-10T01:01:09;51.50;;;28.23;;
47219;SDS011;32961;51.936;4.788;2023-05-10T01:03:37;45.20;;;25.65;;
47219;SDS011;32961;51.936;4.788;2023-05-10T01:06:09;47.60;;;25.48;;
47219;SDS011;32961;51.936;4.788;2023-05-10T01:08:37;39.35;;;22.65;;
47219;SDS011;32961;51.936;4.788;2023-05-10T01:11:05;55.15;;;29.27;;
47219;SDS011;32961;51.936;4.788;2023-05-10T01:13:34;60.55;;;29.55;;
47219;SDS011;32961;51.936;4.788;2023-05-10T01:16:06;46.33;;;26.88;;
47219;SDS011;32961;51.936;4.788;2023-05-10T01:18:35;47.00;;;27.10;;
47219;SDS011;32961;51.936;4.788;2023-05-10T01:21:14;44.08;;;25.83;;
47219;SDS011;32961;51.936;4.788;2023-05-10T01:29:53;43.88;;;26.15;;
47219;SDS011;32961;51.936;4.788;2023-05-10T01:32:49;47.47;;;26.55;;
47219;SDS011;32961;51.936;4.788;2023-05-10T01:35:26;41.95;;;26.05;;
47219;SDS011;32961;51.936;4.788;2023-05-10T01:38:07;49.88;;;27.00;;
47219;SDS011;32961;51.936;4.788;2023-05-10T01:40:52;43.25;;;23.77;;
47219;SDS011;32961;51.936;4.788;2023-05-10T01:43:34;48.58;;;24.30;;
47219;SDS011;32961;51.936;4.788;2023-05-10T01:46:10;43.47;;;23.92;;
47219;SDS011;32961;51.936;4.788;2023-05-10T01:48:47;45.92;;;24.83;;
47219;SDS011;32961;51.936;4.788;2023-05-10T01:51:19;44.20;;;24.60;;
47219;SDS011;32961;51.936;4.788;2023-05-10T01:53:51;48.05;;;23.80;;
47219;SDS011;32961;51.936;4.788;2023-05-10T01:56:22;45.15;;;24.30;;
47219;SDS011;32961;51.936;4.788;2023-05-10T01:58:53;40.95;;;24.63;;
47219;SDS011;32961;51.936;4.788;2023-05-10T02:01:22;44.22;;;23.63;;
47219;SDS011;32961;51.936;4.788;2023-05-10T02:03:53;39.03;;;21.23;;
47219;SDS011;32961;51.936;4.788;2023-05-10T02:06:24;42.97;;;22.73;;
47219;SDS011;32961;51.936;4.788;2023-05-10T02:08:54;51.40;;;24.60;;
47219;SDS011;32961;51.936;4.788;2023-05-10T02:11:23;55.10;;;24.30;;
47219;SDS011;32961;51.936;4.788;2023-05-10T02:13:52;44.05;;;23.98;;
47219;SDS011;32961;51.936;4.788;2023-05-10T02:16:23;46.95;;;24.45;;
47219;SDS011;32961;51.936;4.788;2023-05-10T02:18:54;48.85;;;27.17;;
47219;SDS011;32961;51.936;4.788;2023-05-10T02:21:26;59.08;;;28.15;;
47219;SDS011;32961;51.936;4.788;2023-05-10T02:23:55;59.88;;;27.83;;
47219;SDS011;32961;51.936;4.788;2023-05-10T02:26:24;46.88;;;25.42;;
47219;SDS011;32961;51.936;4.788;2023-05-10T02:28:54;55.40;;;27.50;;
47219;SDS011;32961;51.936;4.788;2023-05-10T02:31:25;52.30;;;26.50;;
47219;SDS011;32961;51.936;4.788;2023-05-10T02:33:54;58.92;;;28.33;;
47219;SDS011;32961;51.936;4.788;2023-05-10T02:36:24;61.33;;;29.33;;
47219;SDS011;32961;51.936;4.788;2023-05-10T02:38:53;55.83;;;28.23;;
47219;SDS011;32961;51.936;4.788;2023-05-10T02:41:22;53.88;;;28.15;;
47219;SDS011;32961;51.936;4.788;2023-05-10T02:43:52;59.05;;;27.85;;
47219;SDS011;32961;51.936;4.788;2023-05-10T02:46:24;54.90;;;28.80;;
47219;SDS011;32961;51.936;4.788;2023-05-10T02:48:52;63.03;;;29.85;;
47219;SDS011;32961;51.936;4.788;2023-05-10T02:51:21;52.72;;;27.30;;
47219;SDS011;32961;51.936;4.788;2023-05-10T02:56:23;55.30;;;27.25;;
47219;SDS011;32961;51.936;4.788;2023-05-10T02:58:56;60.22;;;28.02;;
47219;SDS011;32961;51.936;4.788;2023-05-10T03:01:23;54.30;;;27.38;;
47219;SDS011;32961;51.936;4.788;2023-05-10T03:03:51;49.42;;;26.42;;
47219;SDS011;32961;51.936;4.788;2023-05-10T03:06:19;50.33;;;27.80;;
47219;SDS011;32961;51.936;4.788;2023-05-10T03:08:48;51.92;;;27.13;;
47219;SDS011;32961;51.936;4.788;2023-05-10T03:11:21;56.80;;;28.60;;
47219;SDS011;32961;51.936;4.788;2023-05-10T03:14:03;53.78;;;26.45;;
47219;SDS011;32961;51.936;4.788;2023-05-10T03:16:41;62.47;;;27.13;;
47219;SDS011;32961;51.936;4.788;2023-05-10T03:19:15;52.90;;;28.73;;
47219;SDS011;32961;51.936;4.788;2023-05-10T03:21:50;56.20;;;28.88;;
47219;SDS011;32961;51.936;4.788;2023-05-10T03:24:22;65.55;;;29.08;;
47219;SDS011;32961;51.936;4.788;2023-05-10T03:29:23;59.28;;;28.27;;
47219;SDS011;32961;51.936;4.788;2023-05-10T03:31:53;55.53;;;28.73;;
47219;SDS011;32961;51.936;4.788;2023-05-10T03:34:23;53.78;;;27.13;;
47219;SDS011;32961;51.936;4.788;2023-05-10T03:36:51;62.15;;;29.38;;
47219;SDS011;32961;51.936;4.788;2023-05-10T03:39:18;53.23;;;26.70;;
47219;SDS011;32961;51.936;4.788;2023-05-10T03:41:48;62.63;;;28.73;;
47219;SDS011;32961;51.936;4.788;2023-05-10T03:44:16;55.70;;;27.27;;
47219;SDS011;32961;51.936;4.788;2023-05-10T03:46:44;64.68;;;26.75;;
47219;SDS011;32961;51.936;4.788;2023-05-10T03:49:12;61.63;;;26.25;;
47219;SDS011;32961;51.936;4.788;2023-05-10T03:51:40;58.35;;;27.33;;
47219;SDS011;32961;51.936;4.788;2023-05-10T03:54:08;53.63;;;27.15;;
47219;SDS011;32961;51.936;4.788;2023-05-10T03:56:35;61.90;;;26.20;;
47219;SDS011;32961;51.936;4.788;2023-05-10T03:59:05;44.92;;;24.40;;
47219;SDS011;32961;51.936;4.788;2023-05-10T04:01:33;53.95;;;26.10;;
47219;SDS011;32961;51.936;4.788;2023-05-10T04:04:02;45.33;;;26.05;;
47219;SDS011;32961;51.936;4.788;2023-05-10T04:06:30;53.22;;;30.55;;
47219;SDS011;32961;51.936;4.788;2023-05-10T04:08:58;64.47;;;33.83;;
47219;SDS011;32961;51.936;4.788;2023-05-10T04:11:30;59.38;;;33.58;;
47219;SDS011;32961;51.936;4.788;2023-05-10T04:13:57;64.35;;;34.75;;
47219;SDS011;32961;51.936;4.788;2023-05-10T04:16:26;68.18;;;37.60;;
47219;SDS011;32961;51.936;4.788;2023-05-10T04:18:54;62.97;;;36.88;;
47219;SDS011;32961;51.936;4.788;2023-05-10T04:21:22;59.90;;;37.72;;
47219;SDS011;32961;51.936;4.788;2023-05-10T04:23:50;65.38;;;36.72;;
47219;SDS011;32961;51.936;4.788;2023-05-10T04:26:18;66.93;;;37.38;;
47219;SDS011;32961;51.936;4.788;2023-05-10T04:28:46;59.40;;;35.42;;
47219;SDS011;32961;51.936;4.788;2023-05-10T04:31:14;67.07;;;37.10;;
47219;SDS011;32961;51.936;4.788;2023-05-10T04:33:43;78.78;;;39.97;;
47219;SDS011;32961;51.936;4.788;2023-05-10T04:36:11;76.70;;;40.63;;
47219;SDS011;32961;51.936;4.788;2023-05-10T04:38:39;69.95;;;42.47;;
47219;SDS011;32961;51.936;4.788;2023-05-10T04:41:07;73.07;;;41.30;;
47219;SDS011;32961;51.936;4.788;2023-05-10T04:43:36;76.45;;;40.25;;
47219;SDS011;32961;51.936;4.788;2023-05-10T04:46:05;65.38;;;41.05;;
47219;SDS011;32961;51.936;4.788;2023-05-10T04:48:33;73.63;;;40.42;;
47219;SDS011;32961;51.936;4.788;2023-05-10T04:51:03;70.70;;;37.35;;
47219;SDS011;32961;51.936;4.788;2023-05-10T04:53:32;79.60;;;39.10;;
47219;SDS011;32961;51.936;4.788;2023-05-10T04:56:00;68.05;;;36.92;;
47219;SDS011;32961;51.936;4.788;2023-05-10T04:58:28;62.70;;;34.08;;
47219;SDS011;32961;51.936;4.788;2023-05-10T05:00:56;54.75;;;32.95;;
47219;SDS011;32961;51.936;4.788;2023-05-10T05:03:24;51.15;;;29.10;;
47219;SDS011;32961;51.936;4.788;2023-05-10T05:05:52;61.13;;;31.30;;
47219;SDS011;32961;51.936;4.788;2023-05-10T05:08:21;58.63;;;30.10;;
47219;SDS011;32961;51.936;4.788;2023-05-10T05:10:49;51.15;;;31.23;;
47219;SDS011;32961;51.936;4.788;2023-05-10T05:13:17;52.47;;;32.90;;
47219;SDS011;32961;51.936;4.788;2023-05-10T05:15:45;61.33;;;33.67;;
47219;SDS011;32961;51.936;4.788;2023-05-10T05:18:13;55.80;;;32.38;;
47219;SDS011;32961;51.936;4.788;2023-05-10T05:20:41;50.88;;;30.85;;
47219;SDS011;32961;51.936;4.788;2023-05-10T05:23:09;55.97;;;31.02;;
47219;SDS011;32961;51.936;4.788;2023-05-10T05:25:41;61.28;;;31.73;;
47219;SDS011;32961;51.936;4.788;2023-05-10T05:28:09;55.97;;;30.38;;
47219;SDS011;32961;51.936;4.788;2023-05-10T05:30:36;51.40;;;29.27;;
47219;SDS011;32961;51.936;4.788;2023-05-10T05:33:04;57.53;;;32.03;;
47219;SDS011;32961;51.936;4.788;2023-05-10T05:35:32;59.40;;;29.70;;
47219;SDS011;32961;51.936;4.788;2023-05-10T05:38:00;54.45;;;29.67;;
47219;SDS011;32961;51.936;4.788;2023-05-10T05:40:28;62.38;;;32.17;;
47219;SDS011;32961;51.936;4.788;2023-05-10T05:42:57;51.00;;;28.52;;
47219;SDS011;32961;51.936;4.788;2023-05-10T05:45:25;51.05;;;29.23;;
47219;SDS011;32961;51.936;4.788;2023-05-10T05:47:55;45.33;;;25.05;;
47219;SDS011;32961;51.936;4.788;2023-05-10T05:50:23;50.53;;;27.27;;
47219;SDS011;32961;51.936;4.788;2023-05-10T05:52:51;48.05;;;26.58;;
47219;SDS011;32961;51.936;4.788;2023-05-10T05:55:19;53.13;;;27.38;;
47219;SDS011;32961;51.936;4.788;2023-05-10T05:57:47;48.03;;;24.80;;
47219;SDS011;32961;51.936;4.788;2023-05-10T06:00:16;57.08;;;25.90;;
47219;SDS011;32961;51.936;4.788;2023-05-10T06:02:47;52.10;;;27.23;;
47219;SDS011;32961;51.936;4.788;2023-05-10T06:05:15;48.90;;;25.98;;
47219;SDS011;32961;51.936;4.788;2023-05-10T06:07:43;50.30;;;25.20;;
47219;SDS011;32961;51.936;4.788;2023-05-10T06:10:11;46.08;;;23.23;;
47219;SDS011;32961;51.936;4.788;2023-05-10T06:12:38;47.45;;;23.67;;
47219;SDS011;32961;51.936;4.788;2023-05-10T06:15:09;34.92;;;20.98;;
47219;SDS011;32961;51.936;4.788;2023-05-10T06:17:38;43.45;;;21.90;;
47219;SDS011;32961;51.936;4.788;2023-05-10T06:20:10;40.75;;;20.50;;
47219;SDS011;32961;51.936;4.788;2023-05-10T06:22:39;36.65;;;20.98;;
47219;SDS011;32961;51.936;4.788;2023-05-10T06:25:09;40.55;;;18.40;;
47219;SDS011;32961;51.936;4.788;2023-05-10T06:27:37;33.40;;;17.67;;
47219;SDS011;32961;51.936;4.788;2023-05-10T06:30:08;31.35;;;15.45;;
47219;SDS011;32961;51.936;4.788;2023-05-10T06:32:42;27.60;;;12.73;;
47219;SDS011;32961;51.936;4.788;2023-05-10T06:35:13;24.60;;;11.75;;
47219;SDS011;32961;51.936;4.788;2023-05-10T06:37:41;17.35;;;9.57;;
47219;SDS011;32961;51.936;4.788;2023-05-10T06:40:09;20.00;;;9.77;;
47219;SDS011;32961;51.936;4.788;2023-05-10T06:42:38;18.40;;;9.38;;
47219;SDS011;32961;51.936;4.788;2023-05-10T06:45:06;16.92;;;9.27;;
47219;SDS011;32961;51.936;4.788;2023-05-10T06:47:35;18.08;;;9.00;;
47219;SDS011;32961;51.936;4.788;2023-05-10T06:50:06;14.77;;;8.45;;
47219;SDS011;32961;51.936;4.788;2023-05-10T06:52:35;15.77;;;7.90;;
47219;SDS011;32961;51.936;4.788;2023-05-10T06:55:03;10.23;;;6.50;;
47219;SDS011;32961;51.936;4.788;2023-05-10T06:57:32;9.98;;;6.18;;
47219;SDS011;32961;51.936;4.788;2023-05-10T07:00:00;8.85;;;5.90;;
47219;SDS011;32961;51.936;4.788;2023-05-10T07:02:30;9.55;;;5.82;;
47219;SDS011;32961;51.936;4.788;2023-05-10T07:04:58;10.35;;;6.13;;
47219;SDS011;32961;51.936;4.788;2023-05-10T07:07:30;12.88;;;8.18;;
47219;SDS011;32961;51.936;4.788;2023-05-10T07:09:57;7.25;;;5.13;;
47219;SDS011;32961;51.936;4.788;2023-05-10T07:12:25;6.07;;;4.88;;
47219;SDS011;32961;51.936;4.788;2023-05-10T07:14:53;7.68;;;4.63;;
47219;SDS011;32961;51.936;4.788;2023-05-10T07:17:21;6.20;;;4.80;;
47219;SDS011;32961;51.936;4.788;2023-05-10T07:19:49;6.95;;;5.32;;
47219;SDS011;32961;51.936;4.788;2023-05-10T07:22:17;7.05;;;5.22;;
47219;SDS011;32961;51.936;4.788;2023-05-10T07:24:46;9.73;;;5.93;;
47219;SDS011;32961;51.936;4.788;2023-05-10T07:27:14;6.35;;;5.55;;
47219;SDS011;32961;51.936;4.788;2023-05-10T07:29:42;8.18;;;6.50;;
47219;SDS011;32961;51.936;4.788;2023-05-10T07:32:10;5.63;;;5.03;;
47219;SDS011;32961;51.936;4.788;2023-05-10T07:34:38;6.82;;;5.18;;
47219;SDS011;32961;51.936;4.788;2023-05-10T07:37:06;7.13;;;5.43;;
47219;SDS011;32961;51.936;4.788;2023-05-10T07:39:34;7.95;;;5.57;;
47219;SDS011;32961;51.936;4.788;2023-05-10T07:42:03;11.05;;;7.25;;
47219;SDS011;32961;51.936;4.788;2023-05-10T07:44:31;12.57;;;7.65;;
47219;SDS011;32961;51.936;4.788;2023-05-10T07:46:59;12.32;;;7.00;;
47219;SDS011;32961;51.936;4.788;2023-05-10T07:49:27;11.75;;;7.30;;
47219;SDS011;32961;51.936;4.788;2023-05-10T07:51:55;11.75;;;8.02;;
47219;SDS011;32961;51.936;4.788;2023-05-10T07:54:23;14.07;;;9.15;;
47219;SDS011;32961;51.936;4.788;2023-05-10T07:56:50;12.57;;;7.72;;
47219;SDS011;32961;51.936;4.788;2023-05-10T07:59:20;13.98;;;8.35;;
47219;SDS011;32961;51.936;4.788;2023-05-10T08:01:48;10.32;;;7.00;;
47219;SDS011;32961;51.936;4.788;2023-05-10T08:04:16;12.63;;;7.97;;
47219;SDS011;32961;51.936;4.788;2023-05-10T08:06:44;11.07;;;7.60;;
47219;SDS011;32961;51.936;4.788;2023-05-10T08:09:11;11.50;;;8.45;;
47219;SDS011;32961;51.936;4.788;2023-05-10T08:11:39;12.57;;;7.03;;
47219;SDS011;32961;51.936;4.788;2023-05-10T08:14:08;14.88;;;7.10;;
47219;SDS011;32961;51.936;4.788;2023-05-10T08:16:37;11.68;;;7.68;;
47219;SDS011;32961;51.936;4.788;2023-05-10T08:19:05;18.17;;;8.50;;
47219;SDS011;32961;51.936;4.788;2023-05-10T08:21:33;14.50;;;7.40;;
47219;SDS011;32961;51.936;4.788;2023-05-10T08:24:03;14.82;;;7.10;;
47219;SDS011;32961;51.936;4.788;2023-05-10T08:26:32;15.55;;;7.88;;
47219;SDS011;32961;51.936;4.788;2023-05-10T08:29:01;17.08;;;9.35;;
47219;SDS011;32961;51.936;4.788;2023-05-10T08:31:29;17.85;;;9.70;;
47219;SDS011;32961;51.936;4.788;2023-05-10T08:33:58;18.83;;;9.93;;
47219;SDS011;32961;51.936;4.788;2023-05-10T08:36:29;12.45;;;7.90;;
47219;SDS011;32961;51.936;4.788;2023-05-10T08:38:58;12.27;;;7.78;;
47219;SDS011;32961;51.936;4.788;2023-05-10T08:41:26;17.08;;;8.13;;
47219;SDS011;32961;51.936;4.788;2023-05-10T08:43:55;15.52;;;9.02;;
47219;SDS011;32961;51.936;4.788;2023-05-10T08:46:22;26.80;;;11.63;;
47219;SDS011;32961;51.936;4.788;2023-05-10T08:48:51;20.50;;;12.30;;
47219;SDS011;32961;51.936;4.788;2023-05-10T08:51:24;23.38;;;14.18;;
47219;SDS011;32961;51.936;4.788;2023-05-10T08:53:53;21.45;;;12.77;;
47219;SDS011;32961;51.936;4.788;2023-05-10T08:56:21;22.25;;;12.48;;
47219;SDS011;32961;51.936;4.788;2023-05-10T08:58:50;23.13;;;11.52;;
47219;SDS011;32961;51.936;4.788;2023-05-10T09:01:18;21.00;;;12.27;;
47219;SDS011;32961;51.936;4.788;2023-05-10T09:03:48;21.15;;;11.90;;
47219;SDS011;32961;51.936;4.788;2023-05-10T09:06:17;24.13;;;12.38;;
47219;SDS011;32961;51.936;4.788;2023-05-10T09:08:47;18.27;;;11.48;;
47219;SDS011;32961;51.936;4.788;2023-05-10T09:11:15;21.70;;;11.38;;
47219;SDS011;32961;51.936;4.788;2023-05-10T09:13:44;17.17;;;11.35;;
47219;SDS011;32961;51.936;4.788;2023-05-10T09:16:12;20.65;;;13.30;;
47219;SDS011;32961;51.936;4.788;2023-05-10T09:18:45;15.20;;;11.48;;
47219;SDS011;32961;51.936;4.788;2023-05-10T09:21:13;20.45;;;10.25;;
47219;SDS011;32961;51.936;4.788;2023-05-10T09:23:42;14.85;;;9.43;;
47219;SDS011;32961;51.936;4.788;2023-05-10T09:26:15;13.50;;;9.73;;
47219;SDS011;32961;51.936;4.788;2023-05-10T09:28:50;14.57;;;9.73;;
47219;SDS011;32961;51.936;4.788;2023-05-10T09:31:19;19.63;;;11.23;;
47219;SDS011;32961;51.936;4.788;2023-05-10T09:33:47;15.20;;;11.68;;
47219;SDS011;32961;51.936;4.788;2023-05-10T09:36:16;12.60;;;10.93;;
47219;SDS011;32961;51.936;4.788;2023-05-10T09:38:45;15.20;;;10.80;;
47219;SDS011;32961;51.936;4.788;2023-05-10T09:41:18;20.48;;;9.60;;
47219;SDS011;32961;51.936;4.788;2023-05-10T09:43:47;14.80;;;9.00;;
47219;SDS011;32961;51.936;4.788;2023-05-10T09:46:16;12.77;;;8.65;;
47219;SDS011;32961;51.936;4.788;2023-05-10T09:48:44;12.80;;;9.18;;
47219;SDS011;32961;51.936;4.788;2023-05-10T09:51:19;15.80;;;10.45;;
47219;SDS011;32961;51.936;4.788;2023-05-10T09:53:48;17.95;;;10.20;;
47219;SDS011;32961;51.936;4.788;2023-05-10T09:59:06;12.43;;;6.70;;
47219;SDS011;32961;51.936;4.788;2023-05-10T10:01:35;7.90;;;6.63;;
47219;SDS011;32961;51.936;4.788;2023-05-10T10:04:04;8.20;;;6.93;;
47219;SDS011;32961;51.936;4.788;2023-05-10T10:06:36;7.95;;;6.57;;
47219;SDS011;32961;51.936;4.788;2023-05-10T10:09:05;9.20;;;5.00;;
47219;SDS011;32961;51.936;4.788;2023-05-10T10:11:37;7.95;;;4.85;;
47219;SDS011;32961;51.936;4.788;2023-05-10T10:14:07;5.22;;;4.53;;
47219;SDS011;32961;51.936;4.788;2023-05-10T10:16:35;7.18;;;4.75;;
47219;SDS011;32961;51.936;4.788;2023-05-10T10:19:17;7.30;;;4.70;;
47219;SDS011;32961;51.936;4.788;2023-05-10T10:21:45;7.93;;;5.63;;
47219;SDS011;32961;51.936;4.788;2023-05-10T10:24:13;7.30;;;5.68;;
47219;SDS011;32961;51.936;4.788;2023-05-10T10:26:42;8.80;;;5.88;;
47219;SDS011;32961;51.936;4.788;2023-05-10T10:29:20;8.32;;;5.75;;
47219;SDS011;32961;51.936;4.788;2023-05-10T10:31:53;8.30;;;6.13;;
47219;SDS011;32961;51.936;4.788;2023-05-10T10:34:27;9.80;;;6.57;;
47219;SDS011;32961;51.936;4.788;2023-05-10T10:36:56;10.73;;;6.78;;
47219;SDS011;32961;51.936;4.788;2023-05-10T10:39:25;10.98;;;7.03;;
47219;SDS011;32961;51.936;4.788;2023-05-10T10:41:56;9.98;;;7.60;;
47219;SDS011;32961;51.936;4.788;2023-05-10T10:44:35;7.75;;;6.95;;
47219;SDS011;32961;51.936;4.788;2023-05-10T10:47:05;8.32;;;6.57;;
47219;SDS011;32961;51.936;4.788;2023-05-10T10:49:38;12.02;;;6.95;;
47219;SDS011;32961;51.936;4.788;2023-05-10T10:52:13;11.55;;;8.48;;
47219;SDS011;32961;51.936;4.788;2023-05-10T10:54:53;8.52;;;6.60;;
47219;SDS011;32961;51.936;4.788;2023-05-10T10:57:27;11.85;;;6.93;;
47219;SDS011;32961;51.936;4.788;2023-05-10T11:02:46;9.27;;;7.07;;
47219;SDS011;32961;51.936;4.788;2023-05-10T11:05:25;12.82;;;7.30;;
47219;SDS011;32961;51.936;4.788;2023-05-10T11:08:09;9.43;;;6.93;;
47219;SDS011;32961;51.936;4.788;2023-05-10T11:10:40;7.28;;;6.00;;
47219;SDS011;32961;51.936;4.788;2023-05-10T11:13:28;8.88;;;6.30;;
47219;SDS011;32961;51.936;4.788;2023-05-10T11:15:58;6.97;;;5.80;;
47219;SDS011;32961;51.936;4.788;2023-05-10T11:18:36;5.68;;;5.18;;
47219;SDS011;32961;51.936;4.788;2023-05-10T11:21:05;7.20;;;6.05;;
47219;SDS011;32961;51.936;4.788;2023-05-10T11:26:22;9.88;;;6.55;;
47219;SDS011;32961;51.936;4.788;2023-05-10T11:28:53;9.32;;;7.15;;
47219;SDS011;32961;51.936;4.788;2023-05-10T11:31:22;10.68;;;7.50;;
47219;SDS011;32961;51.936;4.788;2023-05-10T11:33:53;9.57;;;7.70;;
47219;SDS011;32961;51.936;4.788;2023-05-10T11:36:26;10.23;;;8.32;;
47219;SDS011;32961;51.936;4.788;2023-05-10T11:38:55;12.35;;;8.00;;
47219;SDS011;32961;51.936;4.788;2023-05-10T11:41:23;10.00;;;8.32;;
47219;SDS011;32961;51.936;4.788;2023-05-10T11:43:53;15.52;;;8.63;;
47219;SDS011;32961;51.936;4.788;2023-05-10T11:46:22;13.90;;;9.60;;
47219;SDS011;32961;51.936;4.788;2023-05-10T11:48:52;16.13;;;10.75;;
47219;SDS011;32961;51.936;4.788;2023-05-10T11:51:21;13.20;;;9.82;;
47219;SDS011;32961;51.936;4.788;2023-05-10T11:53:52;15.73;;;10.57;;
47219;SDS011;32961;51.936;4.788;2023-05-10T11:56:21;15.63;;;10.38;;
47219;SDS011;32961;51.936;4.788;2023-05-10T11:58:52;15.68;;;10.93;;
47219;SDS011;32961;51.936;4.788;2023-05-10T12:01:22;13.10;;;10.63;;
47219;SDS011;32961;51.936;4.788;2023-05-10T12:03:51;13.90;;;10.82;;
47219;SDS011;32961;51.936;4.788;2023-05-10T12:06:20;16.90;;;10.85;;
47219;SDS011;32961;51.936;4.788;2023-05-10T12:08:49;16.88;;;11.18;;
47219;SDS011;32961;51.936;4.788;2023-05-10T12:11:18;19.55;;;11.45;;
47219;SDS011;32961;51.936;4.788;2023-05-10T12:13:48;15.85;;;11.95;;
47219;SDS011;32961;51.936;4.788;2023-05-10T12:16:18;13.57;;;12.00;;
47219;SDS011;32961;51.936;4.788;2023-05-10T12:18:48;16.38;;;11.02;;
47219;SDS011;32961;51.936;4.788;2023-05-10T12:21:17;16.00;;;11.35;;
47219;SDS011;32961;51.936;4.788;2023-05-10T12:23:48;15.93;;;11.63;;
47219;SDS011;32961;51.936;4.788;2023-05-10T12:26:17;15.77;;;10.82;;
47219;SDS011;32961;51.936;4.788;2023-05-10T12:28:46;13.63;;;8.80;;
47219;SDS011;32961;51.936;4.788;2023-05-10T12:31:14;12.02;;;8.18;;
47219;SDS011;32961;51.936;4.788;2023-05-10T12:33:46;13.77;;;8.70;;
47219;SDS011;32961;51.936;4.788;2023-05-10T12:36:15;10.63;;;7.82;;
47219;SDS011;32961;51.936;4.788;2023-05-10T12:38:45;11.85;;;7.78;;
47219;SDS011;32961;51.936;4.788;2023-05-10T12:41:15;13.98;;;8.00;;
47219;SDS011;32961;51.936;4.788;2023-05-10T12:43:44;8.77;;;6.68;;
47219;SDS011;32961;51.936;4.788;2023-05-10T12:46:13;11.90;;;7.20;;
47219;SDS011;32961;51.936;4.788;2023-05-10T12:48:42;12.30;;;7.32;;
47219;SDS011;32961;51.936;4.788;2023-05-10T12:51:13;11.00;;;7.82;;
47219;SDS011;32961;51.936;4.788;2023-05-10T12:53:43;13.57;;;8.63;;
47219;SDS011;32961;51.936;4.788;2023-05-10T12:56:15;11.18;;;8.52;;
47219;SDS011;32961;51.936;4.788;2023-05-10T12:58:42;12.68;;;9.02;;
47219;SDS011;32961;51.936;4.788;2023-05-10T13:01:14;11.43;;;7.82;;
47219;SDS011;32961;51.936;4.788;2023-05-10T13:03:42;12.63;;;9.00;;
47219;SDS011;32961;51.936;4.788;2023-05-10T13:06:10;11.50;;;8.32;;
47219;SDS011;32961;51.936;4.788;2023-05-10T13:08:41;11.25;;;8.20;;
47219;SDS011;32961;51.936;4.788;2023-05-10T13:11:08;10.27;;;7.30;;
47219;SDS011;32961;51.936;4.788;2023-05-10T13:13:36;11.35;;;6.32;;
47219;SDS011;32961;51.936;4.788;2023-05-10T13:16:04;8.30;;;5.63;;
47219;SDS011;32961;51.936;4.788;2023-05-10T13:18:33;13.73;;;6.15;;
47219;SDS011;32961;51.936;4.788;2023-05-10T13:21:01;13.07;;;6.60;;
47219;SDS011;32961;51.936;4.788;2023-05-10T13:23:30;12.38;;;6.43;;
47219;SDS011;32961;51.936;4.788;2023-05-10T13:25:59;7.70;;;5.68;;
47219;SDS011;32961;51.936;4.788;2023-05-10T13:28:27;7.78;;;5.13;;
47219;SDS011;32961;51.936;4.788;2023-05-10T13:30:55;8.55;;;5.38;;
47219;SDS011;32961;51.936;4.788;2023-05-10T13:33:23;9.88;;;6.20;;
47219;SDS011;32961;51.936;4.788;2023-05-10T13:35:51;9.57;;;4.80;;
47219;SDS011;32961;51.936;4.788;2023-05-10T13:38:21;9.40;;;4.78;;
47219;SDS011;32961;51.936;4.788;2023-05-10T13:40:49;8.80;;;4.97;;
47219;SDS011;32961;51.936;4.788;2023-05-10T13:43:20;7.65;;;4.78;;
47219;SDS011;32961;51.936;4.788;2023-05-10T13:45:48;8.63;;;5.00;;
47219;SDS011;32961;51.936;4.788;2023-05-10T13:48:16;9.27;;;4.53;;
47219;SDS011;32961;51.936;4.788;2023-05-10T13:50:43;9.38;;;5.13;;
47219;SDS011;32961;51.936;4.788;2023-05-10T13:53:12;8.75;;;5.60;;
47219;SDS011;32961;51.936;4.788;2023-05-10T13:55:40;7.20;;;5.18;;
47219;SDS011;32961;51.936;4.788;2023-05-10T13:58:08;7.70;;;5.25;;
47219;SDS011;32961;51.936;4.788;2023-05-10T14:00:38;9.55;;;5.40;;
47219;SDS011;32961;51.936;4.788;2023-05-10T14:03:06;8.02;;;5.22;;
47219;SDS011;32961;51.936;4.788;2023-05-10T14:05:37;10.18;;;5.18;;
47219;SDS011;32961;51.936;4.788;2023-05-10T14:08:05;7.90;;;4.95;;
47219;SDS011;32961;51.936;4.788;2023-05-10T14:10:35;12.45;;;4.85;;
47219;SDS011;32961;51.936;4.788;2023-05-10T14:13:04;9.82;;;4.75;;
47219;SDS011;32961;51.936;4.788;2023-05-10T14:15:32;5.78;;;4.28;;
47219;SDS011;32961;51.936;4.788;2023-05-10T14:18:01;7.10;;;4.57;;
47219;SDS011;32961;51.936;4.788;2023-05-10T14:20:29;8.32;;;4.88;;
47219;SDS011;32961;51.936;4.788;2023-05-10T14:22:58;9.02;;;4.70;;
47219;SDS011;32961;51.936;4.788;2023-05-10T14:25:26;7.75;;;4.00;;
47219;SDS011;32961;51.936;4.788;2023-05-10T14:27:54;6.40;;;4.05;;
47219;SDS011;32961;51.936;4.788;2023-05-10T14:30:22;7.07;;;4.03;;
47219;SDS011;32961;51.936;4.788;2023-05-10T14:32:50;5.95;;;3.90;;
47219;SDS011;32961;51.936;4.788;2023-05-10T14:35:21;6.55;;;4.13;;
47219;SDS011;32961;51.936;4.788;2023-05-10T14:37:50;12.18;;;4.88;;
47219;SDS011;32961;51.936;4.788;2023-05-10T14:40:17;8.93;;;4.22;;
47219;SDS011;32961;51.936;4.788;2023-05-10T14:42:46;6.38;;;4.10;;
47219;SDS011;32961;51.936;4.788;2023-05-10T14:45:13;7.45;;;4.65;;
47219;SDS011;32961;51.936;4.788;2023-05-10T14:47:41;10.75;;;5.75;;
47219;SDS011;32961;51.936;4.788;2023-05-10T14:50:09;6.53;;;4.32;;
47219;SDS011;32961;51.936;4.788;2023-05-10T14:52:58;7.15;;;4.03;;
47219;SDS011;32961;51.936;4.788;2023-05-10T14:55:26;8.73;;;3.70;;
47219;SDS011;32961;51.936;4.788;2023-05-10T14:57:54;7.30;;;3.92;;
47219;SDS011;32961;51.936;4.788;2023-05-10T15:00:22;6.43;;;4.32;;
47219;SDS011;32961;51.936;4.788;2023-05-10T15:02:51;7.38;;;3.75;;
47219;SDS011;32961;51.936;4.788;2023-05-10T15:05:19;5.22;;;3.58;;